Time;durP1;ratioP1;P1;durP2;ratioP2;P2;SDS_P1;SDS_P2;PMS_P1;PMS_P2;Temp;Humidity;BMP_temperature;BMP_pressure;BME280_temperature;BME280_humidity;BME280_pressure;Samples;Min_cycle;Max_cycle;Signal;HPM_P1;HPM_P2
2021/09/25 00:00:31;;;;;;;1.60;1.00;;;17.80;99.90;;;;;;5017048;28;20602;-80
2021/09/25 00:02:58;;;;;;;1.90;0.80;;;17.70;99.90;;;;;;5015819;28;20171;-78
2021/09/25 00:05:28;;;;;;;2.47;1.10;;;17.70;99.90;;;;;;5014434;28;20589;-78
2021/09/25 00:07:55;;;;;;;1.50;1.07;;;17.70;99.90;;;;;;4997346;28;20570;-78
2021/09/25 00:10:22;;;;;;;2.53;1.30;;;17.70;99.90;;;;;;5014426;28;20557;-78
2021/09/25 00:12:48;;;;;;;2.40;1.53;;;17.60;99.90;;;;;;4997216;28;20569;-78
2021/09/25 00:15:14;;;;;;;2.20;1.80;;;17.60;99.90;;;;;;4980549;28;20627;-78
2021/09/25 00:17:40;;;;;;;3.23;2.23;;;17.60;99.90;;;;;;5014523;28;20570;-78
2021/09/25 00:20:07;;;;;;;4.03;1.30;;;17.50;99.90;;;;;;5013734;28;20617;-78
2021/09/25 00:22:33;;;;;;;2.63;1.57;;;17.50;99.90;;;;;;5013590;28;20170;-79
2021/09/25 00:25:01;;;;;;;2.20;1.20;;;17.50;99.90;;;;;;4996793;28;20993;-78
2021/09/25 00:27:27;;;;;;;1.80;1.10;;;17.40;99.90;;;;;;5014403;28;20224;-78
2021/09/25 00:29:52;;;;;;;1.67;1.00;;;17.40;99.90;;;;;;4980319;28;21214;-79
2021/09/25 00:32:18;;;;;;;2.40;1.20;;;17.40;99.90;;;;;;4996701;28;20664;-78
2021/09/25 00:34:44;;;;;;;1.80;1.00;;;17.30;99.90;;;;;;4997123;28;20658;-78
2021/09/25 00:37:10;;;;;;;2.03;1.00;;;17.30;99.90;;;;;;5015270;28;20179;-79
2021/09/25 00:39:35;;;;;;;1.70;1.20;;;17.30;99.90;;;;;;5017720;28;20202;-78
2021/09/25 00:42:01;;;;;;;1.63;0.90;;;17.30;99.90;;;;;;5013704;28;20629;-79
2021/09/25 00:44:27;;;;;;;2.70;1.97;;;17.20;99.90;;;;;;5014070;28;20268;-79
2021/09/25 00:46:53;;;;;;;1.40;0.80;;;17.30;99.90;;;;;;5014168;28;20213;-78
2021/09/25 00:49:20;;;;;;;1.43;0.93;;;17.20;99.90;;;;;;4996027;28;20178;-78
2021/09/25 00:51:47;;;;;;;1.60;1.00;;;17.20;99.90;;;;;;5014116;28;20649;-78
2021/09/25 00:54:13;;;;;;;1.60;0.90;;;17.20;99.90;;;;;;5013582;28;20716;-79
2021/09/25 00:56:43;;;;;;;1.83;0.87;;;17.10;99.90;;;;;;5013688;28;20585;-78
2021/09/25 00:59:10;;;;;;;1.60;0.97;;;17.10;99.90;;;;;;5013263;28;21172;-78
2021/09/25 01:01:36;;;;;;;1.60;0.97;;;17.10;99.90;;;;;;4996241;28;20628;-77
2021/09/25 01:04:01;;;;;;;1.50;0.90;;;17.10;99.90;;;;;;4995964;28;20617;-77
2021/09/25 01:06:27;;;;;;;1.90;0.83;;;17.00;99.90;;;;;;4979965;28;20170;-77
2021/09/25 01:08:53;;;;;;;1.53;0.80;;;17.00;99.90;;;;;;5013130;28;20615;-78
2021/09/25 01:11:19;;;;;;;3.27;1.20;;;17.00;99.90;;;;;;5013833;28;20692;-78
2021/09/25 01:13:45;;;;;;;1.60;1.00;;;17.00;99.90;;;;;;4996202;28;20601;-78
2021/09/25 01:16:11;;;;;;;1.40;0.93;;;17.00;99.90;;;;;;5000469;28;20578;-78
2021/09/25 01:18:36;;;;;;;1.90;1.30;;;16.90;99.90;;;;;;5013332;28;20182;-78
2021/09/25 01:21:07;;;;;;;2.27;1.00;;;17.00;99.90;;;;;;5013211;28;20614;-78
2021/09/25 01:23:34;;;;;;;1.87;1.00;;;16.90;99.90;;;;;;5013320;28;20178;-78
2021/09/25 01:26:00;;;;;;;1.37;0.90;;;16.90;99.90;;;;;;5013220;28;20572;-78
2021/09/25 01:28:30;;;;;;;1.40;0.90;;;16.90;99.90;;;;;;5013216;28;20928;-78
2021/09/25 01:30:57;;;;;;;1.50;0.93;;;16.80;99.90;;;;;;4995447;28;20957;-78
2021/09/25 01:33:25;;;;;;;1.70;0.90;;;16.80;99.90;;;;;;5012775;28;20585;-78
2021/09/25 01:35:51;;;;;;;2.00;1.10;;;16.80;99.90;;;;;;5013101;28;20562;-78
2021/09/25 01:38:17;;;;;;;3.03;1.33;;;16.80;99.90;;;;;;4995677;28;20565;-78
2021/09/25 01:40:43;;;;;;;1.53;0.97;;;16.80;99.90;;;;;;5012400;28;20613;-78
2021/09/25 01:43:08;;;;;;;1.60;1.10;;;16.70;99.90;;;;;;4995732;28;20570;-78
2021/09/25 01:45:34;;;;;;;1.40;0.90;;;16.70;99.90;;;;;;5013019;28;20189;-78
2021/09/25 01:48:00;;;;;;;2.13;0.90;;;16.70;99.90;;;;;;4995378;28;20555;-78
2021/09/25 01:50:26;;;;;;;1.60;0.93;;;16.60;99.90;;;;;;4995179;28;20932;-78
2021/09/25 01:52:52;;;;;;;1.70;1.00;;;16.70;99.90;;;;;;4999529;28;20580;-78
2021/09/25 01:55:18;;;;;;;2.47;0.90;;;16.60;99.90;;;;;;4995219;28;20210;-78
2021/09/25 01:57:43;;;;;;;2.03;1.10;;;16.60;99.90;;;;;;5012762;28;20196;-78
2021/09/25 02:00:10;;;;;;;1.97;0.90;;;16.60;99.90;;;;;;4994725;28;20206;-78
2021/09/25 02:02:37;;;;;;;1.57;1.10;;;16.50;99.90;;;;;;5012484;28;20175;-78
2021/09/25 02:05:05;;;;;;;1.70;0.90;;;16.50;99.90;;;;;;5012549;28;21172;-78
2021/09/25 02:07:31;;;;;;;2.13;1.00;;;16.50;99.90;;;;;;5012472;28;20569;-78
2021/09/25 02:09:57;;;;;;;1.83;1.20;;;16.50;99.90;;;;;;5012136;28;20608;-78
2021/09/25 02:12:23;;;;;;;2.80;1.30;;;16.50;99.90;;;;;;5012716;28;20566;-78
2021/09/25 02:14:49;;;;;;;2.00;1.20;;;16.50;99.90;;;;;;4994583;28;20613;-78
2021/09/25 02:17:15;;;;;;;1.40;0.80;;;16.50;99.90;;;;;;5011903;28;20577;-79
2021/09/25 02:19:41;;;;;;;2.17;1.20;;;16.40;99.90;;;;;;5011815;28;20202;-79
2021/09/25 02:22:07;;;;;;;2.17;1.27;;;16.40;99.90;;;;;;4995102;28;20578;-79
2021/09/25 02:24:33;;;;;;;1.80;1.00;;;16.40;99.90;;;;;;5012410;28;20938;-79
2021/09/25 02:26:59;;;;;;;1.60;1.10;;;16.40;99.90;;;;;;4994963;28;20557;-79
2021/09/25 02:29:25;;;;;;;1.77;1.00;;;16.40;99.90;;;;;;5016497;28;21144;-78
2021/09/25 02:31:51;;;;;;;3.20;1.20;;;16.40;99.90;;;;;;4978694;28;20571;-79
2021/09/25 02:34:17;;;;;;;1.73;1.10;;;16.30;99.90;;;;;;4978413;28;20651;-79
2021/09/25 02:36:43;;;;;;;2.33;1.30;;;16.30;99.90;;;;;;4994640;28;20561;-79
2021/09/25 02:39:08;;;;;;;1.70;1.17;;;16.30;99.90;;;;;;4994405;28;21015;-79
2021/09/25 02:41:34;;;;;;;5.30;1.30;;;16.30;99.90;;;;;;5011953;28;20645;-79
2021/09/25 02:44:00;;;;;;;2.37;1.10;;;16.30;99.90;;;;;;4993783;28;20280;-79
2021/09/25 02:46:26;;;;;;;3.97;1.20;;;16.20;99.90;;;;;;4994394;28;20631;-79
2021/09/25 02:48:51;;;;;;;2.10;1.47;;;16.20;99.90;;;;;;5011678;28;20174;-78
2021/09/25 02:51:17;;;;;;;1.90;1.10;;;16.20;99.90;;;;;;5011668;28;20536;-79
2021/09/25 02:53:46;;;;;;;3.00;1.53;;;16.10;99.90;;;;;;4994670;28;20222;-79
2021/09/25 02:56:12;;;;;;;2.20;1.40;;;16.10;99.90;;;;;;5011708;28;20573;-78
2021/09/25 02:58:38;;;;;;;1.53;1.20;;;16.10;99.90;;;;;;5011887;28;20492;-78
2021/09/25 03:01:04;;;;;;;3.10;1.20;;;16.10;99.90;;;;;;5011926;28;20617;-78
2021/09/25 03:03:29;;;;;;;1.90;1.57;;;16.10;99.90;;;;;;5012197;28;20304;-78
2021/09/25 03:05:55;;;;;;;2.30;1.40;;;16.10;99.90;;;;;;5016483;28;20169;-78
2021/09/25 03:08:21;;;;;;;2.00;1.50;;;16.10;99.90;;;;;;5011833;28;20320;-78
2021/09/25 03:10:47;;;;;;;2.17;1.30;;;16.10;99.90;;;;;;4994050;28;20577;-78
2021/09/25 03:13:13;;;;;;;3.03;1.73;;;16.10;99.90;;;;;;4994241;28;20661;-79
2021/09/25 03:15:38;;;;;;;4.17;1.63;;;16.10;99.90;;;;;;5011768;28;20217;-78
2021/09/25 03:18:04;;;;;;;2.03;1.70;;;16.00;99.90;;;;;;5011507;28;20177;-78
2021/09/25 03:20:30;;;;;;;2.90;2.27;;;16.00;99.90;;;;;;4977548;28;20201;-78
2021/09/25 03:22:55;;;;;;;2.77;2.10;;;16.00;99.90;;;;;;5011595;28;20225;-78
2021/09/25 03:25:21;;;;;;;2.40;1.70;;;16.00;99.90;;;;;;5011587;28;20214;-78
2021/09/25 03:27:47;;;;;;;3.20;2.00;;;16.00;99.90;;;;;;5011842;28;20538;-78
2021/09/25 03:30:13;;;;;;;3.00;1.60;;;16.00;99.90;;;;;;5010803;28;20174;-78
2021/09/25 03:32:40;;;;;;;2.85;2.00;;;16.00;99.90;;;;;;4994231;28;20166;-78
2021/09/25 03:35:07;;;;;;;2.47;1.60;;;16.00;99.90;;;;;;5011304;28;20226;-78
2021/09/25 03:37:33;;;;;;;2.33;1.43;;;16.00;99.90;;;;;;5011719;28;21026;-78
2021/09/25 03:39:59;;;;;;;1.90;1.50;;;16.00;99.90;;;;;;4993628;28;20676;-78
2021/09/25 03:42:25;;;;;;;3.07;2.20;;;16.10;99.90;;;;;;4998520;28;20566;-78
2021/09/25 03:44:50;;;;;;;2.77;2.00;;;16.10;99.90;;;;;;5011304;28;20249;-78
2021/09/25 03:47:16;;;;;;;1.97;1.37;;;16.10;99.90;;;;;;5011389;28;20305;-78
2021/09/25 03:49:42;;;;;;;7.70;1.80;;;16.10;99.90;;;;;;5010984;28;20224;-78
2021/09/25 03:52:09;;;;;;;3.57;2.57;;;16.00;99.90;;;;;;5010803;28;20591;-78
2021/09/25 03:54:35;;;;;;;2.80;2.30;;;16.10;99.90;;;;;;4993458;28;20301;-78
2021/09/25 03:57:01;;;;;;;2.30;2.10;;;16.10;99.90;;;;;;5014902;28;20612;-78
2021/09/25 03:59:26;;;;;;;2.60;1.90;;;16.10;99.90;;;;;;5014495;28;20624;-78
2021/09/25 04:01:52;;;;;;;3.00;2.20;;;16.10;99.90;;;;;;5014821;28;20166;-78
2021/09/25 04:04:18;;;;;;;2.57;2.00;;;16.10;99.90;;;;;;5014803;28;20512;-78
2021/09/25 04:06:43;;;;;;;3.23;2.30;;;16.10;99.90;;;;;;5014699;28;20166;-78
2021/09/25 04:09:09;;;;;;;2.30;2.10;;;16.10;99.90;;;;;;5014286;28;20171;-78
2021/09/25 04:11:35;;;;;;;2.23;2.03;;;16.10;99.90;;;;;;5014565;28;20258;-78
2021/09/25 04:14:02;;;;;;;2.65;2.20;;;16.10;99.90;;;;;;5014758;28;20548;-78
2021/09/25 04:16:27;;;;;;;2.57;2.20;;;16.10;99.90;;;;;;4997230;28;20170;-78
2021/09/25 04:18:54;;;;;;;2.30;2.07;;;16.00;99.90;;;;;;4999570;28;20692;-77
2021/09/25 04:21:20;;;;;;;5.20;4.10;;;16.00;99.90;;;;;;5017992;28;20228;-77
2021/09/25 04:23:46;;;;;;;2.00;1.80;;;16.00;99.90;;;;;;4996945;28;20605;-77
2021/09/25 04:26:12;;;;;;;2.67;1.70;;;16.00;99.90;;;;;;4996915;28;20931;-78
2021/09/25 04:28:38;;;;;;;2.47;2.27;;;16.00;99.90;;;;;;5013985;28;20190;-77
2021/09/25 04:31:04;;;;;;;3.80;1.97;;;16.00;99.90;;;;;;5014430;28;20589;-77
2021/09/25 04:33:29;;;;;;;3.23;2.10;;;16.00;99.90;;;;;;5014435;28;20177;-77
2021/09/25 04:35:55;;;;;;;2.80;2.37;;;16.00;99.90;;;;;;5014648;28;21173;-78
2021/09/25 04:38:21;;;;;;;2.80;1.73;;;16.00;99.90;;;;;;5014241;28;20170;-77
2021/09/25 04:40:47;;;;;;;2.87;1.80;;;16.00;99.90;;;;;;4996324;28;20209;-77
2021/09/25 04:43:13;;;;;;;3.70;2.10;;;16.00;99.90;;;;;;5014182;28;20569;-77
2021/09/25 04:45:38;;;;;;;2.13;1.93;;;16.00;99.90;;;;;;5013948;28;20658;-77
2021/09/25 04:48:04;;;;;;;4.50;2.30;;;15.90;99.90;;;;;;5014246;28;20597;-77
2021/09/25 04:50:30;;;;;;;2.80;2.07;;;15.90;99.90;;;;;;4996133;28;20538;-77
2021/09/25 04:53:12;;;;;;;3.00;2.47;;;15.90;99.90;;;;;;4996578;28;20580;-77
2021/09/25 04:55:39;;;;;;;3.25;2.30;;;15.90;99.90;;;;;;5015226;28;20210;-77
2021/09/25 04:58:06;;;;;;;2.53;1.97;;;15.80;99.90;;;;;;5017760;28;20187;-77
2021/09/25 05:00:33;;;;;;;5.67;3.60;;;15.80;99.90;;;;;;5013403;28;20617;-77
2021/09/25 05:02:58;;;;;;;3.00;2.70;;;15.80;99.90;;;;;;5013991;28;20923;-77
2021/09/25 05:05:24;;;;;;;2.50;2.30;;;15.80;99.90;;;;;;4995940;28;20677;-77
2021/09/25 05:07:50;;;;;;;2.57;2.23;;;15.80;99.90;;;;;;5013032;28;20519;-77
2021/09/25 05:10:16;;;;;;;2.40;2.20;;;15.70;99.90;;;;;;5013285;28;20171;-77
2021/09/25 05:12:42;;;;;;;3.77;2.27;;;15.70;99.90;;;;;;5013603;28;20178;-77
2021/09/25 05:15:09;;;;;;;3.80;2.87;;;15.70;99.90;;;;;;4996051;28;20608;-77
2021/09/25 05:17:35;;;;;;;2.90;2.60;;;15.70;99.90;;;;;;5013585;28;20573;-77
2021/09/25 05:20:03;;;;;;;2.70;2.50;;;15.70;99.90;;;;;;5013297;28;20624;-77
2021/09/25 05:22:29;;;;;;;4.40;2.63;;;15.80;99.90;;;;;;5013477;28;20935;-77
2021/09/25 05:24:54;;;;;;;4.60;3.10;;;15.80;99.90;;;;;;4996015;28;20222;-77
2021/09/25 05:27:20;;;;;;;2.80;2.07;;;15.80;99.90;;;;;;5013280;28;20690;-77
2021/09/25 05:29:46;;;;;;;2.90;2.23;;;15.80;99.90;;;;;;4995758;28;20174;-77
2021/09/25 05:32:12;;;;;;;2.73;2.53;;;15.90;99.90;;;;;;4996348;28;20650;-77
2021/09/25 05:34:38;;;;;;;2.43;2.10;;;15.90;99.90;;;;;;5017892;28;20281;-77
2021/09/25 05:37:04;;;;;;;5.40;3.33;;;15.90;99.90;;;;;;5013258;28;20686;-77
2021/09/25 05:39:31;;;;;;;3.40;2.90;;;15.90;99.90;;;;;;5013091;28;20620;-78
2021/09/25 05:41:57;;;;;;;3.40;2.63;;;15.90;99.90;;;;;;4995482;28;20574;-78
2021/09/25 05:44:22;;;;;;;4.38;2.53;;;15.90;99.90;;;;;;5012908;28;20684;-78
2021/09/25 05:46:48;;;;;;;3.13;2.03;;;15.90;99.90;;;;;;5012679;28;20285;-77
2021/09/25 05:49:14;;;;;;;3.13;2.27;;;15.90;99.90;;;;;;5012510;28;20216;-77
2021/09/25 05:51:40;;;;;;;5.05;2.63;;;15.90;99.90;;;;;;5013013;28;20202;-78
2021/09/25 05:54:05;;;;;;;3.80;2.60;;;16.00;99.90;;;;;;5012608;28;20303;-78
2021/09/25 05:56:31;;;;;;;2.50;2.30;;;16.00;99.90;;;;;;5012718;28;20169;-77
2021/09/25 05:58:57;;;;;;;2.60;2.10;;;16.10;99.90;;;;;;5012321;28;20189;-77
2021/09/25 06:01:23;;;;;;;3.17;2.87;;;16.10;99.90;;;;;;5012781;28;20573;-77
2021/09/25 06:03:49;;;;;;;3.03;2.50;;;16.20;99.90;;;;;;5012300;28;20303;-78
2021/09/25 06:06:15;;;;;;;3.53;2.30;;;16.20;99.90;;;;;;4995254;28;20570;-78
2021/09/25 06:08:41;;;;;;;3.23;2.00;;;16.30;99.90;;;;;;4994915;28;20177;-77
2021/09/25 06:11:07;;;;;;;3.30;2.03;;;16.30;99.90;;;;;;5000070;28;20193;-78
2021/09/25 06:13:32;;;;;;;3.30;2.20;;;16.40;99.90;;;;;;4995229;28;20178;-78
2021/09/25 06:15:58;;;;;;;4.97;2.53;;;16.50;99.90;;;;;;5012655;28;20174;-77
2021/09/25 06:18:24;;;;;;;3.70;2.33;;;16.60;99.90;;;;;;5016207;28;20197;-81
2021/09/25 06:20:49;;;;;;;2.77;2.43;;;16.80;99.90;;;;;;5018286;28;20213;-82
2021/09/25 06:23:15;;;;;;;5.73;2.53;;;16.90;99.90;;;;;;5014626;28;20209;-81
2021/09/25 06:25:41;;;;;;;4.43;2.50;;;16.90;99.90;;;;;;4997211;28;20194;-81
2021/09/25 06:28:07;;;;;;;4.87;3.03;;;17.00;99.90;;;;;;5015676;28;20928;-81
2021/09/25 06:30:39;;;;;;;3.77;2.90;;;17.00;99.90;;;;;;5013585;28;20174;-81
2021/09/25 06:33:06;;;;;;;3.93;2.53;;;17.10;99.90;;;;;;5013150;28;20581;-81
2021/09/25 06:35:32;;;;;;;3.83;2.87;;;17.20;99.90;;;;;;4995197;28;21254;-81
2021/09/25 06:38:00;;;;;;;2.93;2.43;;;17.40;99.90;;;;;;5014521;28;20574;-80
2021/09/25 06:40:29;;;;;;;5.37;3.50;;;17.50;99.90;;;;;;5012155;28;20198;-81
2021/09/25 06:42:55;;;;;;;4.83;3.00;;;17.60;99.90;;;;;;4996153;28;20639;-79
2021/09/25 06:45:21;;;;;;;3.50;2.70;;;17.70;99.90;;;;;;5018390;28;20624;-80
2021/09/25 06:47:47;;;;;;;3.27;3.00;;;17.80;99.90;;;;;;5004934;28;20178;-80
2021/09/25 06:50:12;;;;;;;4.55;3.40;;;18.00;99.90;;;;;;5022774;28;20697;-79
2021/09/25 06:52:38;;;;;;;5.40;3.10;;;18.00;99.90;;;;;;5021042;28;20171;-79
2021/09/25 06:55:05;;;;;;;5.38;4.20;;;18.00;99.90;;;;;;5000460;28;20777;-80
2021/09/25 06:57:31;;;;;;;4.53;2.80;;;18.00;99.90;;;;;;5017631;28;20256;-80
2021/09/25 06:59:57;;;;;;;3.40;3.00;;;18.10;99.90;;;;;;5016168;28;21023;-80
2021/09/25 07:02:23;;;;;;;3.33;3.03;;;18.30;99.90;;;;;;5005404;28;20655;-80
2021/09/25 07:04:54;;;;;;;4.00;2.70;;;18.40;99.90;;;;;;5039105;28;20708;-81
2021/09/25 07:07:20;;;;;;;3.50;3.10;;;18.60;99.90;;;;;;5011544;28;20676;-80
2021/09/25 07:09:46;;;;;;;7.73;2.70;;;18.70;99.90;;;;;;5030052;28;20600;-80
2021/09/25 07:12:12;;;;;;;2.87;2.60;;;18.90;99.90;;;;;;5009098;28;20162;-81
2021/09/25 07:14:37;;;;;;;5.70;3.87;;;19.00;99.90;;;;;;5025489;28;20194;-80
2021/09/25 07:17:03;;;;;;;3.27;2.53;;;19.20;99.90;;;;;;5029329;28;20178;-80
2021/09/25 07:19:29;;;;;;;3.00;2.70;;;19.40;99.90;;;;;;5005878;28;20229;-80
2021/09/25 07:21:55;;;;;;;4.70;2.93;;;19.50;99.90;;;;;;5016540;28;20561;-80
2021/09/25 07:24:21;;;;;;;4.77;3.07;;;19.70;99.90;;;;;;5019152;28;20605;-79
2021/09/25 07:26:47;;;;;;;3.40;2.73;;;20.10;99.90;;;;;;5017571;28;20589;-78
2021/09/25 07:29:12;;;;;;;4.53;2.60;;;20.70;99.90;;;;;;4986492;28;20167;-78
2021/09/25 07:31:38;;;;;;;5.60;2.70;;;21.50;99.90;;;;;;5004361;28;20177;-80
2021/09/25 07:34:04;;;;;;;3.00;2.03;;;22.30;99.90;;;;;;4973975;28;20643;-79
2021/09/25 07:36:30;;;;;;;2.33;2.10;;;23.20;99.90;;;;;;4991429;28;20170;-78
2021/09/25 07:38:56;;;;;;;2.47;2.27;;;24.30;99.90;;;;;;4989528;28;20170;-79
2021/09/25 07:41:25;;;;;;;3.87;2.40;;;25.30;99.90;;;;;;5010014;28;20585;-80
2021/09/25 07:44:04;;;;;;;2.53;1.60;;;26.10;99.90;;;;;;4977082;28;20636;-79
2021/09/25 07:46:32;;;;;;;2.50;2.30;;;26.70;99.90;;;;;;5005458;28;20580;-80
2021/09/25 07:48:59;;;;;;;2.33;2.13;;;27.30;99.90;;;;;;4986232;28;20593;-80
2021/09/25 07:51:30;;;;;;;2.60;2.03;;;27.90;99.90;;;;;;5024665;28;20593;-80
2021/09/25 07:53:56;;;;;;;4.00;2.27;;;28.50;99.90;;;;;;5033041;28;20635;-80
2021/09/25 07:56:22;;;;;;;2.33;1.47;;;29.30;99.90;;;;;;5011605;28;20605;-80
2021/09/25 07:58:48;;;;;;;3.70;2.10;;;29.70;99.90;;;;;;5030568;28;20570;-80
2021/09/25 08:01:18;;;;;;;1.80;1.70;;;30.20;99.90;;;;;;5010451;28;20208;-80
2021/09/25 08:03:43;;;;;;;3.40;2.23;;;30.70;99.90;;;;;;5011099;28;20607;-79
2021/09/25 08:06:10;;;;;;;3.13;2.13;;;31.20;99.90;;;;;;5011734;28;20675;-80
2021/09/25 08:08:36;;;;;;;3.67;2.90;;;31.50;99.90;;;;;;5029319;28;20591;-79
2021/09/25 08:11:05;;;;;;;3.53;1.80;;;31.80;99.90;;;;;;5028045;28;20612;-81
2021/09/25 08:13:31;;;;;;;2.00;1.60;;;32.20;99.10;;;;;;5015906;28;21187;-79
2021/09/25 08:15:57;;;;;;;2.10;1.70;;;32.30;98.80;;;;;;5014329;28;20573;-79
2021/09/25 08:18:23;;;;;;;4.90;1.90;;;32.60;97.90;;;;;;4981928;28;20250;-79
2021/09/25 08:20:52;;;;;;;2.77;2.47;;;32.50;95.90;;;;;;4982117;28;20572;-80
2021/09/25 08:23:17;;;;;;;1.87;1.10;;;32.60;94.90;;;;;;4996953;28;20171;-80
2021/09/25 08:25:43;;;;;;;3.50;1.63;;;32.80;94.60;;;;;;4965060;28;20607;-80
2021/09/25 08:28:09;;;;;;;1.80;1.33;;;33.20;94.30;;;;;;5014922;28;20535;-80
2021/09/25 08:30:35;;;;;;;1.80;1.70;;;33.50;93.60;;;;;;4996689;28;20202;-80
2021/09/25 08:33:01;;;;;;;2.67;1.23;;;34.10;93.20;;;;;;5015333;28;20174;-79
2021/09/25 08:35:28;;;;;;;2.87;1.30;;;34.50;92.40;;;;;;4982416;28;20225;-79
2021/09/25 08:37:54;;;;;;;2.83;1.53;;;35.00;91.40;;;;;;5001072;28;20170;-81
2021/09/25 08:40:22;;;;;;;2.93;1.30;;;35.20;87.70;;;;;;4964372;28;20930;-80
2021/09/25 08:42:51;;;;;;;2.50;1.80;;;35.00;81.40;;;;;;5013199;28;20170;-80
2021/09/25 08:45:17;;;;;;;2.27;1.50;;;35.00;81.10;;;;;;4965969;28;20593;-79
2021/09/25 08:47:44;;;;;;;3.30;1.83;;;35.00;80.00;;;;;;4999194;28;20987;-80
2021/09/25 08:50:11;;;;;;;1.90;1.50;;;35.00;77.80;;;;;;4997930;28;20675;-80
2021/09/25 08:52:37;;;;;;;2.83;1.37;;;35.10;77.30;;;;;;4996397;28;20569;-80
2021/09/25 08:55:05;;;;;;;2.43;1.20;;;35.30;76.70;;;;;;4980782;28;20611;-80
2021/09/25 08:57:30;;;;;;;1.97;1.20;;;35.30;73.90;;;;;;4999437;28;20167;-79
2021/09/25 09:00:16;;;;;;;2.10;1.47;;;35.30;72.80;;;;;;4983182;28;20632;-79
2021/09/25 09:02:42;;;;;;;1.83;1.50;;;35.30;71.10;;;;;;4983348;28;20178;-80
2021/09/25 09:05:08;;;;;;;1.80;1.47;;;35.50;70.70;;;;;;4965688;28;20613;-80
2021/09/25 09:07:34;;;;;;;1.90;1.40;;;35.50;68.40;;;;;;4985789;28;20178;-79
2021/09/25 09:10:00;;;;;;;3.20;1.27;;;35.30;66.00;;;;;;4987632;28;20652;-80
2021/09/25 09:12:28;;;;;;;2.63;1.60;;;34.90;65.30;;;;;;5001203;28;20574;-80
2021/09/25 09:14:55;;;;;;;2.23;1.50;;;34.80;65.30;;;;;;4984618;28;20618;-80
2021/09/25 09:17:26;;;;;;;2.20;1.70;;;34.90;65.70;;;;;;4998010;28;20569;-80
2021/09/25 09:19:53;;;;;;;1.90;1.53;;;35.10;66.30;;;;;;5000824;28;20581;-80
2021/09/25 09:22:21;;;;;;;1.67;1.10;;;35.50;66.90;;;;;;4968015;28;20588;-79
2021/09/25 09:24:49;;;;;;;3.90;1.60;;;35.50;63.60;;;;;;4983429;28;20643;-79
2021/09/25 09:27:21;;;;;;;1.70;1.60;;;35.40;63.50;;;;;;4967621;28;21013;-80
2021/09/25 09:29:47;;;;;;;2.00;1.70;;;35.40;62.30;;;;;;4999070;28;20627;-80
2021/09/25 09:32:13;;;;;;;2.03;1.27;;;35.50;62.80;;;;;;4985026;28;20577;-80
2021/09/25 09:34:42;;;;;;;1.87;1.60;;;35.70;62.10;;;;;;4986136;28;20621;-80
2021/09/25 09:37:13;;;;;;;2.73;1.30;;;36.10;62.20;;;;;;4970163;28;20652;-80
2021/09/25 09:39:39;;;;;;;1.97;1.77;;;36.40;61.40;;;;;;5017666;28;20580;-80
2021/09/25 09:42:05;;;;;;;1.70;1.47;;;36.50;60.20;;;;;;4999319;28;20601;-80
2021/09/25 09:44:32;;;;;;;2.00;1.23;;;36.30;58.70;;;;;;5000728;28;20190;-80
2021/09/25 09:47:04;;;;;;;1.40;1.10;;;36.30;58.70;;;;;;5000524;28;20190;-80
2021/09/25 09:49:37;;;;;;;1.60;1.03;;;36.60;58.70;;;;;;4982716;28;20639;-80
2021/09/25 09:52:11;;;;;;;1.87;1.67;;;36.80;58.10;;;;;;5002688;28;20672;-80
2021/09/25 09:54:42;;;;;;;1.80;1.07;;;37.20;58.40;;;;;;4984118;28;20627;-81
2021/09/25 09:57:09;;;;;;;2.90;1.40;;;37.50;58.30;;;;;;4983785;28;20586;-80
2021/09/25 09:59:36;;;;;;;1.50;0.90;;;37.60;56.50;;;;;;5018693;28;20677;-80
2021/09/25 10:02:03;;;;;;;1.90;1.23;;;37.50;55.60;;;;;;4968407;28;20581;-81
2021/09/25 10:04:29;;;;;;;1.90;1.40;;;37.60;55.60;;;;;;4995254;28;20612;-81
2021/09/25 10:06:57;;;;;;;1.70;0.97;;;37.80;55.50;;;;;;4995433;28;20916;-81
2021/09/25 10:09:29;;;;;;;1.90;1.07;;;38.10;55.30;;;;;;4962632;28;20637;-79
2021/09/25 10:11:59;;;;;;;2.60;1.47;;;38.30;54.20;;;;;;4979641;28;20582;-80
2021/09/25 10:14:27;;;;;;;1.83;1.43;;;38.50;54.60;;;;;;4979593;28;20701;-80
2021/09/25 10:16:55;;;;;;;1.83;1.20;;;38.60;54.20;;;;;;4979458;28;20577;-81
2021/09/25 10:19:26;;;;;;;2.53;1.50;;;38.70;54.00;;;;;;4978403;28;20565;-81
2021/09/25 10:21:56;;;;;;;2.87;1.50;;;38.80;52.80;;;;;;4995228;28;20656;-81
2021/09/25 10:24:39;;;;;;;1.77;1.63;;;38.40;51.20;;;;;;4979124;28;21119;-81
2021/09/25 10:27:07;;;;;;;1.40;1.10;;;37.70;49.90;;;;;;4979169;28;20570;-81
2021/09/25 10:29:33;;;;;;;2.47;1.57;;;37.10;51.40;;;;;;4982186;28;20996;-81
2021/09/25 10:32:21;;;;;;;1.93;1.27;;;36.90;52.10;;;;;;4994828;28;20565;-81
2021/09/25 10:35:19;;;;;;;1.80;1.40;;;36.80;52.60;;;;;;4978902;28;20640;-81
2021/09/25 10:37:48;;;;;;;1.90;1.40;;;36.70;52.80;;;;;;4978893;28;21050;-81
2021/09/25 10:40:19;;;;;;;2.00;1.80;;;36.70;52.60;;;;;;4978550;28;20588;-81
2021/09/25 10:42:49;;;;;;;2.00;1.70;;;36.50;51.70;;;;;;4995050;28;20573;-81
2021/09/25 10:45:36;;;;;;;1.70;1.20;;;36.10;52.00;;;;;;4996526;28;20612;-81
2021/09/25 10:48:14;;;;;;;1.47;1.10;;;36.00;52.80;;;;;;4997293;28;20577;-81
2021/09/25 10:50:51;;;;;;;2.00;1.70;;;36.10;52.80;;;;;;4981998;28;21069;-81
2021/09/25 10:53:22;;;;;;;2.30;1.20;;;36.00;51.10;;;;;;4979873;28;20572;-80
2021/09/25 10:55:50;;;;;;;1.70;1.30;;;35.50;51.80;;;;;;4963508;28;20597;-81
2021/09/25 10:58:25;;;;;;;2.00;1.60;;;35.40;51.90;;;;;;4963857;28;20582;-82
2021/09/25 11:01:06;;;;;;;2.33;1.90;;;35.00;51.50;;;;;;4994903;28;20572;-82
2021/09/25 11:06:12;;;;;;;14.77;2.30;;;34.30;52.30;;;;;;5013779;28;20927;-80
2021/09/25 11:08:48;;;;;;;18.40;2.80;;;34.20;53.20;;;;;;4979461;28;20604;-81
2021/09/25 11:11:15;;;;;;;1.77;1.37;;;34.30;53.60;;;;;;4963158;28;20644;-81
2021/09/25 11:14:03;;;;;;;5.10;2.00;;;34.30;53.30;;;;;;4995284;28;20601;-81
2021/09/25 11:16:41;;;;;;;1.70;1.30;;;34.00;52.60;;;;;;4978422;28;20573;-81
2021/09/25 11:19:32;;;;;;;1.60;1.33;;;34.00;53.10;;;;;;4978032;28;20581;-82
2021/09/25 11:22:02;;;;;;;1.93;1.43;;;33.90;53.10;;;;;;4970978;28;20589;-81
2021/09/25 11:24:37;;;;;;;2.03;1.57;;;33.70;53.20;;;;;;4994583;28;20604;-81
2021/09/25 11:27:16;;;;;;;3.83;1.57;;;33.60;53.10;;;;;;4994342;28;20573;-81
2021/09/25 11:30:20;;;;;;;1.80;1.30;;;33.40;53.10;;;;;;4977399;28;20621;-81
2021/09/25 11:32:55;;;;;;;1.97;1.20;;;33.20;53.60;;;;;;4977570;28;20564;-81
2021/09/25 11:35:33;;;;;;;1.70;1.13;;;33.30;53.90;;;;;;4994202;28;20619;-81
2021/09/25 11:38:13;;;;;;;2.90;2.17;;;33.30;53.90;;;;;;4978106;28;20569;-81
2021/09/25 11:40:46;;;;;;;1.90;1.40;;;33.10;52.80;;;;;;4993627;28;20951;-82
2021/09/25 11:43:22;;;;;;;2.63;1.50;;;33.00;53.30;;;;;;4979074;28;20600;-82
2021/09/25 11:45:51;;;;;;;1.70;1.40;;;32.80;53.30;;;;;;4994364;28;21190;-80
2021/09/25 11:48:20;;;;;;;1.47;1.13;;;32.80;53.70;;;;;;4977818;28;20581;-80
2021/09/25 11:50:49;;;;;;;1.70;1.20;;;32.60;53.00;;;;;;4977954;28;20663;-82
2021/09/25 11:53:18;;;;;;;1.70;1.10;;;32.40;52.50;;;;;;4978162;28;20667;-81
2021/09/25 11:55:45;;;;;;;1.50;1.10;;;32.10;52.90;;;;;;4994251;28;20631;-80
2021/09/25 11:58:13;;;;;;;2.20;1.07;;;31.90;53.10;;;;;;4977792;28;20978;-81
2021/09/25 12:00:46;;;;;;;1.43;0.93;;;31.80;53.40;;;;;;4993945;28;20591;-82
2021/09/25 12:03:13;;;;;;;1.50;0.90;;;31.80;54.00;;;;;;4977944;28;20612;-82
2021/09/25 12:05:44;;;;;;;1.90;1.20;;;32.00;54.40;;;;;;4961704;28;20609;-82
2021/09/25 12:08:19;;;;;;;2.07;1.20;;;32.10;54.20;;;;;;4994032;28;21016;-82
2021/09/25 12:10:52;;;;;;;4.53;1.33;;;32.10;53.80;;;;;;4977287;28;21221;-81
2021/09/25 12:13:27;;;;;;;3.97;1.13;;;32.10;54.00;;;;;;4993843;28;20637;-81
2021/09/25 12:15:56;;;;;;;1.40;0.87;;;32.10;53.40;;;;;;4979138;28;20588;-81
2021/09/25 12:18:25;;;;;;;1.80;1.10;;;31.80;52.80;;;;;;4981724;28;20609;-81
2021/09/25 12:20:56;;;;;;;1.80;1.00;;;31.60;52.80;;;;;;5000505;28;20594;-82
2021/09/25 12:23:29;;;;;;;1.60;0.90;;;31.40;52.80;;;;;;4980808;28;20937;-80
2021/09/25 12:25:55;;;;;;;1.50;0.97;;;31.30;52.70;;;;;;4981266;28;20573;-81
2021/09/25 12:28:27;;;;;;;1.37;0.90;;;31.10;52.80;;;;;;4996788;28;20565;-81
2021/09/25 12:30:58;;;;;;;1.83;1.03;;;30.90;53.10;;;;;;4996797;28;20620;-82
2021/09/25 12:33:25;;;;;;;1.93;1.00;;;30.80;53.20;;;;;;4964456;28;20964;-81
2021/09/25 12:36:03;;;;;;;3.20;0.80;;;30.70;53.50;;;;;;4964618;28;20566;-81
2021/09/25 12:38:31;;;;;;;1.90;1.40;;;30.60;53.70;;;;;;4980354;28;20689;-81
2021/09/25 12:41:02;;;;;;;2.40;1.00;;;30.60;54.00;;;;;;4980753;28;20574;-81
2021/09/25 12:43:34;;;;;;;1.53;1.00;;;30.70;53.50;;;;;;4964352;28;20946;-81
2021/09/25 12:46:08;;;;;;;1.70;0.80;;;30.50;52.80;;;;;;4996751;28;20572;-80
2021/09/25 12:48:34;;;;;;;1.80;0.90;;;30.20;52.30;;;;;;4979883;28;20924;-81
2021/09/25 12:51:00;;;;;;;1.40;0.83;;;29.80;52.20;;;;;;4980300;28;20618;-80
2021/09/25 12:53:26;;;;;;;1.57;0.73;;;29.60;52.60;;;;;;4996432;28;20568;-81